sensor_id;sensor_type;location;lat;lon;timestamp;P1;durP1;ratioP1;P2;durP2;ratioP2
46290;SDS011;32023;44.444;26.006;2023-07-31T00:00:24;12.45;;;6.53;;
46290;SDS011;32023;44.444;26.006;2023-07-31T00:02:51;8.57;;;6.30;;
46290;SDS011;32023;44.444;26.006;2023-07-31T00:05:18;13.93;;;5.55;;
46290;SDS011;32023;44.444;26.006;2023-07-31T00:07:44;12.52;;;5.38;;
46290;SDS011;32023;44.444;26.006;2023-07-31T00:10:12;8.57;;;5.28;;
46290;SDS011;32023;44.444;26.006;2023-07-31T00:12:42;8.77;;;5.60;;
46290;SDS011;32023;44.444;26.006;2023-07-31T00:15:10;8.35;;;5.40;;
46290;SDS011;32023;44.444;26.006;2023-07-31T00:17:38;9.98;;;5.00;;
46290;SDS011;32023;44.444;26.006;2023-07-31T00:20:07;13.27;;;5.55;;
46290;SDS011;32023;44.444;26.006;2023-07-31T00:22:33;9.35;;;5.72;;
46290;SDS011;32023;44.444;26.006;2023-07-31T00:25:01;13.70;;;5.50;;
46290;SDS011;32023;44.444;26.006;2023-07-31T00:27:27;11.20;;;5.18;;
46290;SDS011;32023;44.444;26.006;2023-07-31T00:29:54;5.93;;;4.90;;
46290;SDS011;32023;44.444;26.006;2023-07-31T00:32:21;7.75;;;5.53;;
46290;SDS011;32023;44.444;26.006;2023-07-31T00:34:47;6.75;;;5.40;;
46290;SDS011;32023;44.444;26.006;2023-07-31T00:37:16;6.57;;;5.15;;
46290;SDS011;32023;44.444;26.006;2023-07-31T00:39:45;10.82;;;5.70;;
46290;SDS011;32023;44.444;26.006;2023-07-31T00:42:12;6.18;;;5.03;;
46290;SDS011;32023;44.444;26.006;2023-07-31T00:44:38;8.80;;;5.80;;
46290;SDS011;32023;44.444;26.006;2023-07-31T00:47:04;7.90;;;6.00;;
46290;SDS011;32023;44.444;26.006;2023-07-31T00:49:33;6.22;;;5.50;;
46290;SDS011;32023;44.444;26.006;2023-07-31T00:52:00;9.20;;;6.07;;
46290;SDS011;32023;44.444;26.006;2023-07-31T00:54:27;8.00;;;5.70;;
46290;SDS011;32023;44.444;26.006;2023-07-31T00:56:56;6.63;;;6.03;;
46290;SDS011;32023;44.444;26.006;2023-07-31T00:59:23;8.98;;;5.90;;
46290;SDS011;32023;44.444;26.006;2023-07-31T01:01:49;7.15;;;6.35;;
46290;SDS011;32023;44.444;26.006;2023-07-31T01:04:16;11.32;;;6.18;;
46290;SDS011;32023;44.444;26.006;2023-07-31T01:06:48;6.63;;;5.88;;
46290;SDS011;32023;44.444;26.006;2023-07-31T01:12:24;7.03;;;6.32;;
46290;SDS011;32023;44.444;26.006;2023-07-31T01:17:31;8.38;;;7.28;;
46290;SDS011;32023;44.444;26.006;2023-07-31T01:20:01;7.82;;;7.13;;
46290;SDS011;32023;44.444;26.006;2023-07-31T01:22:46;7.82;;;7.05;;
46290;SDS011;32023;44.444;26.006;2023-07-31T01:25:48;9.75;;;6.90;;
46290;SDS011;32023;44.444;26.006;2023-07-31T01:28:25;7.43;;;6.25;;
46290;SDS011;32023;44.444;26.006;2023-07-31T01:31:00;7.13;;;6.43;;
46290;SDS011;32023;44.444;26.006;2023-07-31T01:33:32;5.80;;;5.30;;
46290;SDS011;32023;44.444;26.006;2023-07-31T01:36:00;6.43;;;4.63;;
46290;SDS011;32023;44.444;26.006;2023-07-31T01:38:27;5.97;;;4.55;;
46290;SDS011;32023;44.444;26.006;2023-07-31T01:40:56;5.07;;;4.57;;
46290;SDS011;32023;44.444;26.006;2023-07-31T01:43:23;7.03;;;4.82;;
46290;SDS011;32023;44.444;26.006;2023-07-31T01:45:49;5.65;;;4.57;;
46290;SDS011;32023;44.444;26.006;2023-07-31T01:48:15;5.18;;;4.70;;
46290;SDS011;32023;44.444;26.006;2023-07-31T01:50:42;5.88;;;5.22;;
46290;SDS011;32023;44.444;26.006;2023-07-31T01:53:08;6.28;;;5.65;;
46290;SDS011;32023;44.444;26.006;2023-07-31T01:55:34;6.35;;;5.70;;
46290;SDS011;32023;44.444;26.006;2023-07-31T01:58:01;13.07;;;6.50;;
46290;SDS011;32023;44.444;26.006;2023-07-31T02:00:27;9.27;;;6.57;;
46290;SDS011;32023;44.444;26.006;2023-07-31T02:02:54;11.88;;;7.13;;
46290;SDS011;32023;44.444;26.006;2023-07-31T02:05:20;8.40;;;7.30;;
46290;SDS011;32023;44.444;26.006;2023-07-31T02:07:47;9.20;;;7.25;;
46290;SDS011;32023;44.444;26.006;2023-07-31T02:10:13;7.80;;;7.00;;
46290;SDS011;32023;44.444;26.006;2023-07-31T02:12:39;8.00;;;6.40;;
46290;SDS011;32023;44.444;26.006;2023-07-31T02:15:06;8.25;;;7.22;;
46290;SDS011;32023;44.444;26.006;2023-07-31T02:17:32;13.38;;;7.78;;
46290;SDS011;32023;44.444;26.006;2023-07-31T02:19:59;10.23;;;8.55;;
46290;SDS011;32023;44.444;26.006;2023-07-31T02:22:25;10.32;;;8.13;;
46290;SDS011;32023;44.444;26.006;2023-07-31T02:24:51;9.00;;;8.05;;
46290;SDS011;32023;44.444;26.006;2023-07-31T02:27:17;11.55;;;8.88;;
46290;SDS011;32023;44.444;26.006;2023-07-31T02:29:44;9.13;;;7.68;;
46290;SDS011;32023;44.444;26.006;2023-07-31T02:32:10;9.52;;;8.48;;
46290;SDS011;32023;44.444;26.006;2023-07-31T02:34:36;10.57;;;8.48;;
46290;SDS011;32023;44.444;26.006;2023-07-31T02:37:03;15.60;;;9.48;;
46290;SDS011;32023;44.444;26.006;2023-07-31T02:39:30;13.73;;;9.60;;
46290;SDS011;32023;44.444;26.006;2023-07-31T02:41:56;11.75;;;9.70;;
46290;SDS011;32023;44.444;26.006;2023-07-31T02:44:25;14.05;;;10.98;;
46290;SDS011;32023;44.444;26.006;2023-07-31T02:46:51;15.32;;;10.63;;
46290;SDS011;32023;44.444;26.006;2023-07-31T02:49:18;15.48;;;11.40;;
46290;SDS011;32023;44.444;26.006;2023-07-31T02:51:44;11.90;;;10.63;;
46290;SDS011;32023;44.444;26.006;2023-07-31T02:54:10;12.77;;;10.60;;
46290;SDS011;32023;44.444;26.006;2023-07-31T02:56:37;12.65;;;10.57;;
46290;SDS011;32023;44.444;26.006;2023-07-31T02:59:03;11.50;;;10.30;;
46290;SDS011;32023;44.444;26.006;2023-07-31T03:01:29;10.40;;;9.10;;
46290;SDS011;32023;44.444;26.006;2023-07-31T03:03:56;10.60;;;9.52;;
46290;SDS011;32023;44.444;26.006;2023-07-31T03:06:22;11.25;;;9.98;;
46290;SDS011;32023;44.444;26.006;2023-07-31T03:08:48;9.98;;;8.98;;
46290;SDS011;32023;44.444;26.006;2023-07-31T03:11:14;13.32;;;10.32;;
46290;SDS011;32023;44.444;26.006;2023-07-31T03:13:41;11.60;;;9.65;;
46290;SDS011;32023;44.444;26.006;2023-07-31T03:16:07;11.13;;;9.70;;
46290;SDS011;32023;44.444;26.006;2023-07-31T03:18:34;11.90;;;10.35;;
46290;SDS011;32023;44.444;26.006;2023-07-31T03:21:00;12.25;;;10.18;;
46290;SDS011;32023;44.444;26.006;2023-07-31T03:23:26;10.43;;;9.40;;
46290;SDS011;32023;44.444;26.006;2023-07-31T03:25:56;12.02;;;9.02;;
46290;SDS011;32023;44.444;26.006;2023-07-31T03:28:24;10.00;;;7.65;;
46290;SDS011;32023;44.444;26.006;2023-07-31T03:30:51;10.40;;;7.80;;
46290;SDS011;32023;44.444;26.006;2023-07-31T03:33:18;8.45;;;7.55;;
46290;SDS011;32023;44.444;26.006;2023-07-31T03:35:44;9.07;;;8.18;;
46290;SDS011;32023;44.444;26.006;2023-07-31T03:38:11;10.38;;;8.43;;
46290;SDS011;32023;44.444;26.006;2023-07-31T03:40:37;10.63;;;8.98;;
46290;SDS011;32023;44.444;26.006;2023-07-31T03:43:04;10.63;;;9.00;;
46290;SDS011;32023;44.444;26.006;2023-07-31T03:45:31;10.70;;;9.70;;
46290;SDS011;32023;44.444;26.006;2023-07-31T03:47:57;10.98;;;9.90;;
46290;SDS011;32023;44.444;26.006;2023-07-31T03:50:24;10.32;;;9.27;;
46290;SDS011;32023;44.444;26.006;2023-07-31T03:52:50;11.25;;;9.80;;
46290;SDS011;32023;44.444;26.006;2023-07-31T03:55:17;12.25;;;11.05;;
46290;SDS011;32023;44.444;26.006;2023-07-31T03:57:43;12.32;;;11.02;;
46290;SDS011;32023;44.444;26.006;2023-07-31T04:00:10;12.27;;;11.10;;
46290;SDS011;32023;44.444;26.006;2023-07-31T04:02:39;15.00;;;11.80;;
46290;SDS011;32023;44.444;26.006;2023-07-31T04:05:06;13.25;;;11.85;;
46290;SDS011;32023;44.444;26.006;2023-07-31T04:07:36;15.05;;;11.98;;
46290;SDS011;32023;44.444;26.006;2023-07-31T04:10:03;12.38;;;11.07;;
46290;SDS011;32023;44.444;26.006;2023-07-31T04:12:29;11.55;;;10.30;;
46290;SDS011;32023;44.444;26.006;2023-07-31T04:14:58;12.80;;;10.80;;
46290;SDS011;32023;44.444;26.006;2023-07-31T04:17:27;11.57;;;10.55;;
46290;SDS011;32023;44.444;26.006;2023-07-31T04:19:54;12.73;;;11.48;;
46290;SDS011;32023;44.444;26.006;2023-07-31T04:22:20;12.43;;;11.07;;
46290;SDS011;32023;44.444;26.006;2023-07-31T04:24:46;11.48;;;10.45;;
46290;SDS011;32023;44.444;26.006;2023-07-31T04:27:13;11.95;;;10.73;;
46290;SDS011;32023;44.444;26.006;2023-07-31T04:29:42;10.40;;;9.43;;
46290;SDS011;32023;44.444;26.006;2023-07-31T04:32:11;12.60;;;10.32;;
46290;SDS011;32023;44.444;26.006;2023-07-31T04:34:37;10.20;;;8.60;;
46290;SDS011;32023;44.444;26.006;2023-07-31T04:37:04;8.73;;;7.55;;
46290;SDS011;32023;44.444;26.006;2023-07-31T04:39:33;8.02;;;7.22;;
46290;SDS011;32023;44.444;26.006;2023-07-31T04:42:05;10.02;;;7.75;;
46290;SDS011;32023;44.444;26.006;2023-07-31T04:44:46;7.70;;;6.90;;
46290;SDS011;32023;44.444;26.006;2023-07-31T04:48:20;8.70;;;6.97;;
46290;SDS011;32023;44.444;26.006;2023-07-31T04:50:46;6.63;;;5.82;;
46290;SDS011;32023;44.444;26.006;2023-07-31T04:53:13;9.13;;;5.95;;
46290;SDS011;32023;44.444;26.006;2023-07-31T04:55:52;6.80;;;6.10;;
46290;SDS011;32023;44.444;26.006;2023-07-31T04:58:22;5.60;;;5.03;;
46290;SDS011;32023;44.444;26.006;2023-07-31T05:00:53;7.18;;;5.55;;
46290;SDS011;32023;44.444;26.006;2023-07-31T05:03:22;5.70;;;5.10;;
46290;SDS011;32023;44.444;26.006;2023-07-31T05:05:49;5.70;;;4.63;;
46290;SDS011;32023;44.444;26.006;2023-07-31T05:08:16;7.93;;;5.47;;
46290;SDS011;32023;44.444;26.006;2023-07-31T05:10:42;5.78;;;5.03;;
46290;SDS011;32023;44.444;26.006;2023-07-31T05:13:09;5.43;;;4.82;;
46290;SDS011;32023;44.444;26.006;2023-07-31T05:15:35;4.75;;;4.25;;
46290;SDS011;32023;44.444;26.006;2023-07-31T05:18:02;6.70;;;4.80;;
46290;SDS011;32023;44.444;26.006;2023-07-31T05:20:28;6.10;;;5.05;;
46290;SDS011;32023;44.444;26.006;2023-07-31T05:22:55;8.35;;;4.55;;
46290;SDS011;32023;44.444;26.006;2023-07-31T05:25:21;5.53;;;4.95;;
46290;SDS011;32023;44.444;26.006;2023-07-31T05:27:48;5.18;;;4.45;;
46290;SDS011;32023;44.444;26.006;2023-07-31T05:30:14;6.32;;;4.68;;
46290;SDS011;32023;44.444;26.006;2023-07-31T05:32:40;4.68;;;4.00;;
46290;SDS011;32023;44.444;26.006;2023-07-31T05:35:16;6.90;;;4.50;;
46290;SDS011;32023;44.444;26.006;2023-07-31T05:37:42;6.43;;;4.05;;
46290;SDS011;32023;44.444;26.006;2023-07-31T05:40:09;5.13;;;4.32;;
46290;SDS011;32023;44.444;26.006;2023-07-31T05:42:35;6.72;;;4.15;;
46290;SDS011;32023;44.444;26.006;2023-07-31T05:45:12;5.00;;;4.20;;
46290;SDS011;32023;44.444;26.006;2023-07-31T05:47:39;9.60;;;4.75;;
46290;SDS011;32023;44.444;26.006;2023-07-31T05:50:08;6.85;;;4.20;;
46290;SDS011;32023;44.444;26.006;2023-07-31T05:52:38;6.55;;;4.20;;
46290;SDS011;32023;44.444;26.006;2023-07-31T05:55:04;6.28;;;4.18;;
46290;SDS011;32023;44.444;26.006;2023-07-31T05:57:31;5.78;;;4.10;;
46290;SDS011;32023;44.444;26.006;2023-07-31T05:59:57;7.93;;;4.13;;
46290;SDS011;32023;44.444;26.006;2023-07-31T06:02:23;5.57;;;4.22;;
46290;SDS011;32023;44.444;26.006;2023-07-31T06:04:50;7.22;;;4.30;;
46290;SDS011;32023;44.444;26.006;2023-07-31T06:07:16;7.05;;;4.13;;
46290;SDS011;32023;44.444;26.006;2023-07-31T06:09:44;7.22;;;4.30;;
46290;SDS011;32023;44.444;26.006;2023-07-31T06:12:14;5.72;;;4.28;;
46290;SDS011;32023;44.444;26.006;2023-07-31T06:14:45;4.82;;;3.90;;
46290;SDS011;32023;44.444;26.006;2023-07-31T06:17:34;5.32;;;3.58;;
46290;SDS011;32023;44.444;26.006;2023-07-31T06:20:16;7.60;;;3.72;;
46290;SDS011;32023;44.444;26.006;2023-07-31T06:22:56;6.03;;;3.33;;
46290;SDS011;32023;44.444;26.006;2023-07-31T06:25:28;6.30;;;3.93;;
46290;SDS011;32023;44.444;26.006;2023-07-31T06:27:55;5.63;;;3.38;;
46290;SDS011;32023;44.444;26.006;2023-07-31T06:30:27;4.60;;;3.90;;
46290;SDS011;32023;44.444;26.006;2023-07-31T06:32:54;4.30;;;3.90;;
46290;SDS011;32023;44.444;26.006;2023-07-31T06:35:28;7.97;;;3.45;;
46290;SDS011;32023;44.444;26.006;2023-07-31T06:37:58;4.00;;;3.22;;
46290;SDS011;32023;44.444;26.006;2023-07-31T06:40:32;4.65;;;3.45;;
46290;SDS011;32023;44.444;26.006;2023-07-31T06:42:59;5.05;;;3.90;;
46290;SDS011;32023;44.444;26.006;2023-07-31T06:46:05;4.83;;;3.67;;
46290;SDS011;32023;44.444;26.006;2023-07-31T06:48:35;5.53;;;3.72;;
46290;SDS011;32023;44.444;26.006;2023-07-31T06:51:15;6.15;;;3.55;;
46290;SDS011;32023;44.444;26.006;2023-07-31T06:53:42;5.93;;;3.55;;
46290;SDS011;32023;44.444;26.006;2023-07-31T06:56:12;4.63;;;3.00;;
46290;SDS011;32023;44.444;26.006;2023-07-31T06:58:47;5.85;;;4.10;;
46290;SDS011;32023;44.444;26.006;2023-07-31T07:01:24;4.38;;;3.33;;
46290;SDS011;32023;44.444;26.006;2023-07-31T07:03:50;4.25;;;3.60;;
46290;SDS011;32023;44.444;26.006;2023-07-31T07:06:25;4.68;;;3.17;;
46290;SDS011;32023;44.444;26.006;2023-07-31T07:08:54;7.63;;;3.47;;
46290;SDS011;32023;44.444;26.006;2023-07-31T07:11:24;4.18;;;3.60;;
46290;SDS011;32023;44.444;26.006;2023-07-31T07:13:50;4.10;;;3.58;;
46290;SDS011;32023;44.444;26.006;2023-07-31T07:16:17;6.57;;;4.03;;
46290;SDS011;32023;44.444;26.006;2023-07-31T07:18:43;5.72;;;3.13;;
46290;SDS011;32023;44.444;26.006;2023-07-31T07:21:12;5.22;;;3.50;;
46290;SDS011;32023;44.444;26.006;2023-07-31T07:23:41;5.35;;;3.20;;
46290;SDS011;32023;44.444;26.006;2023-07-31T07:26:08;5.82;;;3.70;;
46290;SDS011;32023;44.444;26.006;2023-07-31T07:28:34;9.20;;;3.97;;
46290;SDS011;32023;44.444;26.006;2023-07-31T07:31:02;5.28;;;4.00;;
46290;SDS011;32023;44.444;26.006;2023-07-31T07:33:28;6.88;;;4.00;;
46290;SDS011;32023;44.444;26.006;2023-07-31T07:35:55;4.03;;;3.22;;
46290;SDS011;32023;44.444;26.006;2023-07-31T07:38:24;3.05;;;2.80;;
46290;SDS011;32023;44.444;26.006;2023-07-31T07:41:00;3.58;;;2.85;;
46290;SDS011;32023;44.444;26.006;2023-07-31T07:43:29;6.10;;;3.47;;
46290;SDS011;32023;44.444;26.006;2023-07-31T07:45:55;4.20;;;3.20;;
46290;SDS011;32023;44.444;26.006;2023-07-31T07:48:28;5.60;;;3.17;;
46290;SDS011;32023;44.444;26.006;2023-07-31T07:51:02;5.30;;;3.10;;
46290;SDS011;32023;44.444;26.006;2023-07-31T07:53:33;3.67;;;3.17;;
46290;SDS011;32023;44.444;26.006;2023-07-31T07:56:04;6.78;;;3.25;;
46290;SDS011;32023;44.444;26.006;2023-07-31T07:58:42;4.60;;;2.90;;
46290;SDS011;32023;44.444;26.006;2023-07-31T08:01:11;3.75;;;3.17;;
46290;SDS011;32023;44.444;26.006;2023-07-31T08:03:38;3.55;;;3.05;;
46290;SDS011;32023;44.444;26.006;2023-07-31T08:06:04;10.88;;;3.85;;
46290;SDS011;32023;44.444;26.006;2023-07-31T08:08:34;4.65;;;3.33;;
46290;SDS011;32023;44.444;26.006;2023-07-31T08:11:01;5.50;;;3.40;;
46290;SDS011;32023;44.444;26.006;2023-07-31T08:13:31;4.55;;;3.13;;
46290;SDS011;32023;44.444;26.006;2023-07-31T08:16:01;9.82;;;3.95;;
46290;SDS011;32023;44.444;26.006;2023-07-31T08:18:29;4.55;;;3.45;;
46290;SDS011;32023;44.444;26.006;2023-07-31T08:20:58;6.68;;;3.90;;
46290;SDS011;32023;44.444;26.006;2023-07-31T08:23:31;5.82;;;3.58;;
46290;SDS011;32023;44.444;26.006;2023-07-31T08:25:58;11.23;;;3.80;;
46290;SDS011;32023;44.444;26.006;2023-07-31T08:28:24;3.50;;;3.17;;
46290;SDS011;32023;44.444;26.006;2023-07-31T08:30:56;6.22;;;3.80;;
46290;SDS011;32023;44.444;26.006;2023-07-31T08:33:23;4.93;;;3.53;;
46290;SDS011;32023;44.444;26.006;2023-07-31T08:38:20;6.53;;;3.35;;
46290;SDS011;32023;44.444;26.006;2023-07-31T08:40:50;5.93;;;3.83;;
46290;SDS011;32023;44.444;26.006;2023-07-31T08:43:20;5.85;;;4.10;;
46290;SDS011;32023;44.444;26.006;2023-07-31T08:45:54;8.85;;;3.92;;
46290;SDS011;32023;44.444;26.006;2023-07-31T08:48:29;5.97;;;4.50;;
46290;SDS011;32023;44.444;26.006;2023-07-31T08:50:58;8.02;;;4.35;;
46290;SDS011;32023;44.444;26.006;2023-07-31T08:53:34;5.80;;;4.47;;
46290;SDS011;32023;44.444;26.006;2023-07-31T08:56:00;4.13;;;3.72;;
46290;SDS011;32023;44.444;26.006;2023-07-31T08:58:31;9.25;;;3.85;;
46290;SDS011;32023;44.444;26.006;2023-07-31T09:01:03;5.00;;;3.63;;
46290;SDS011;32023;44.444;26.006;2023-07-31T09:03:43;4.90;;;3.88;;
46290;SDS011;32023;44.444;26.006;2023-07-31T09:06:30;5.45;;;4.25;;
46290;SDS011;32023;44.444;26.006;2023-07-31T09:09:25;4.43;;;3.70;;
46290;SDS011;32023;44.444;26.006;2023-07-31T09:14:33;5.45;;;3.80;;
46290;SDS011;32023;44.444;26.006;2023-07-31T09:17:04;6.25;;;4.30;;
46290;SDS011;32023;44.444;26.006;2023-07-31T09:19:34;6.18;;;4.22;;
46290;SDS011;32023;44.444;26.006;2023-07-31T09:22:05;5.60;;;4.00;;
46290;SDS011;32023;44.444;26.006;2023-07-31T09:24:32;5.70;;;3.92;;
46290;SDS011;32023;44.444;26.006;2023-07-31T09:27:01;3.78;;;3.47;;
46290;SDS011;32023;44.444;26.006;2023-07-31T09:29:31;5.20;;;3.53;;
46290;SDS011;32023;44.444;26.006;2023-07-31T09:31:57;4.13;;;3.67;;
46290;SDS011;32023;44.444;26.006;2023-07-31T09:34:36;6.32;;;3.88;;
46290;SDS011;32023;44.444;26.006;2023-07-31T09:37:06;4.50;;;3.33;;
46290;SDS011;32023;44.444;26.006;2023-07-31T09:39:32;5.90;;;3.70;;
46290;SDS011;32023;44.444;26.006;2023-07-31T09:42:12;4.30;;;3.80;;
46290;SDS011;32023;44.444;26.006;2023-07-31T09:44:41;5.30;;;3.70;;
46290;SDS011;32023;44.444;26.006;2023-07-31T09:47:21;7.88;;;4.03;;
46290;SDS011;32023;44.444;26.006;2023-07-31T09:49:49;6.35;;;4.40;;
46290;SDS011;32023;44.444;26.006;2023-07-31T09:52:15;6.78;;;3.90;;
46290;SDS011;32023;44.444;26.006;2023-07-31T09:54:41;6.15;;;3.85;;
46290;SDS011;32023;44.444;26.006;2023-07-31T09:57:07;5.88;;;4.30;;
46290;SDS011;32023;44.444;26.006;2023-07-31T09:59:35;4.45;;;4.05;;
46290;SDS011;32023;44.444;26.006;2023-07-31T10:02:02;4.57;;;3.85;;
46290;SDS011;32023;44.444;26.006;2023-07-31T10:04:29;4.88;;;4.30;;
46290;SDS011;32023;44.444;26.006;2023-07-31T10:06:56;4.40;;;3.80;;
46290;SDS011;32023;44.444;26.006;2023-07-31T10:09:27;4.38;;;3.47;;
46290;SDS011;32023;44.444;26.006;2023-07-31T10:11:59;6.43;;;3.72;;
46290;SDS011;32023;44.444;26.006;2023-07-31T10:14:30;4.60;;;3.60;;
46290;SDS011;32023;44.444;26.006;2023-07-31T10:16:57;4.22;;;3.50;;
46290;SDS011;32023;44.444;26.006;2023-07-31T10:19:24;5.47;;;3.60;;
46290;SDS011;32023;44.444;26.006;2023-07-31T10:21:55;5.30;;;3.40;;
46290;SDS011;32023;44.444;26.006;2023-07-31T10:24:23;4.60;;;3.65;;
46290;SDS011;32023;44.444;26.006;2023-07-31T10:26:50;4.90;;;3.42;;
46290;SDS011;32023;44.444;26.006;2023-07-31T10:29:18;8.23;;;3.45;;
46290;SDS011;32023;44.444;26.006;2023-07-31T10:31:46;4.03;;;3.30;;
46290;SDS011;32023;44.444;26.006;2023-07-31T10:34:13;4.53;;;3.75;;
46290;SDS011;32023;44.444;26.006;2023-07-31T10:36:42;5.20;;;3.70;;
46290;SDS011;32023;44.444;26.006;2023-07-31T10:42:11;5.18;;;3.80;;
46290;SDS011;32023;44.444;26.006;2023-07-31T10:44:38;5.28;;;3.70;;
46290;SDS011;32023;44.444;26.006;2023-07-31T10:49:44;4.25;;;3.00;;
46290;SDS011;32023;44.444;26.006;2023-07-31T10:52:12;7.45;;;3.42;;
46290;SDS011;32023;44.444;26.006;2023-07-31T10:54:44;9.68;;;3.42;;
46290;SDS011;32023;44.444;26.006;2023-07-31T10:57:27;3.90;;;3.15;;
46290;SDS011;32023;44.444;26.006;2023-07-31T11:00:59;3.55;;;3.13;;
46290;SDS011;32023;44.444;26.006;2023-07-31T11:04:12;4.38;;;2.97;;
46290;SDS011;32023;44.444;26.006;2023-07-31T11:06:39;3.00;;;2.63;;
46290;SDS011;32023;44.444;26.006;2023-07-31T11:09:20;3.40;;;2.83;;
46290;SDS011;32023;44.444;26.006;2023-07-31T11:11:46;3.20;;;2.90;;
46290;SDS011;32023;44.444;26.006;2023-07-31T11:14:15;3.13;;;2.75;;
46290;SDS011;32023;44.444;26.006;2023-07-31T11:16:41;6.30;;;3.53;;
46290;SDS011;32023;44.444;26.006;2023-07-31T11:19:08;4.07;;;2.72;;
46290;SDS011;32023;44.444;26.006;2023-07-31T11:21:34;3.47;;;3.00;;
46290;SDS011;32023;44.444;26.006;2023-07-31T11:24:12;3.03;;;2.80;;
46290;SDS011;32023;44.444;26.006;2023-07-31T11:26:50;4.18;;;2.72;;
46290;SDS011;32023;44.444;26.006;2023-07-31T11:29:22;3.25;;;2.60;;
46290;SDS011;32023;44.444;26.006;2023-07-31T11:31:56;3.55;;;2.50;;
46290;SDS011;32023;44.444;26.006;2023-07-31T11:34:23;3.13;;;2.58;;
46290;SDS011;32023;44.444;26.006;2023-07-31T11:36:53;2.72;;;2.25;;
46290;SDS011;32023;44.444;26.006;2023-07-31T11:39:30;5.18;;;2.78;;
46290;SDS011;32023;44.444;26.006;2023-07-31T11:42:02;3.83;;;2.67;;
46290;SDS011;32023;44.444;26.006;2023-07-31T11:44:38;3.22;;;2.65;;
46290;SDS011;32023;44.444;26.006;2023-07-31T11:47:12;3.35;;;2.85;;
46290;SDS011;32023;44.444;26.006;2023-07-31T11:49:42;8.52;;;2.88;;
46290;SDS011;32023;44.444;26.006;2023-07-31T11:52:09;5.28;;;2.70;;
46290;SDS011;32023;44.444;26.006;2023-07-31T11:54:43;5.82;;;2.97;;
46290;SDS011;32023;44.444;26.006;2023-07-31T11:57:10;3.55;;;2.58;;
46290;SDS011;32023;44.444;26.006;2023-07-31T11:59:37;7.00;;;2.75;;
46290;SDS011;32023;44.444;26.006;2023-07-31T12:02:04;3.38;;;2.65;;
46290;SDS011;32023;44.444;26.006;2023-07-31T12:04:31;3.42;;;2.38;;
46290;SDS011;32023;44.444;26.006;2023-07-31T12:06:59;4.93;;;2.75;;
46290;SDS011;32023;44.444;26.006;2023-07-31T12:09:28;3.00;;;2.75;;
46290;SDS011;32023;44.444;26.006;2023-07-31T12:12:10;3.35;;;2.50;;
46290;SDS011;32023;44.444;26.006;2023-07-31T12:14:50;6.07;;;3.38;;
46290;SDS011;32023;44.444;26.006;2023-07-31T12:17:17;6.47;;;3.13;;
46290;SDS011;32023;44.444;26.006;2023-07-31T12:19:50;4.57;;;2.70;;
46290;SDS011;32023;44.444;26.006;2023-07-31T12:22:19;2.90;;;2.40;;
46290;SDS011;32023;44.444;26.006;2023-07-31T12:24:46;2.80;;;2.47;;
46290;SDS011;32023;44.444;26.006;2023-07-31T12:27:13;3.08;;;2.67;;
46290;SDS011;32023;44.444;26.006;2023-07-31T12:29:43;3.53;;;2.72;;
46290;SDS011;32023;44.444;26.006;2023-07-31T12:32:22;3.17;;;2.70;;
46290;SDS011;32023;44.444;26.006;2023-07-31T12:34:50;3.20;;;2.90;;
46290;SDS011;32023;44.444;26.006;2023-07-31T12:37:20;7.43;;;2.67;;
46290;SDS011;32023;44.444;26.006;2023-07-31T12:39:57;2.97;;;2.65;;
46290;SDS011;32023;44.444;26.006;2023-07-31T12:42:30;4.43;;;3.30;;
46290;SDS011;32023;44.444;26.006;2023-07-31T12:45:00;3.25;;;2.78;;
46290;SDS011;32023;44.444;26.006;2023-07-31T12:47:29;9.93;;;2.63;;
46290;SDS011;32023;44.444;26.006;2023-07-31T12:49:56;3.42;;;2.72;;
46290;SDS011;32023;44.444;26.006;2023-07-31T12:52:25;2.85;;;2.65;;
46290;SDS011;32023;44.444;26.006;2023-07-31T12:54:52;3.55;;;2.65;;
46290;SDS011;32023;44.444;26.006;2023-07-31T12:57:19;3.00;;;2.38;;
46290;SDS011;32023;44.444;26.006;2023-07-31T12:59:46;2.67;;;2.47;;
46290;SDS011;32023;44.444;26.006;2023-07-31T13:02:12;3.15;;;2.72;;
46290;SDS011;32023;44.444;26.006;2023-07-31T13:04:39;3.47;;;2.58;;
46290;SDS011;32023;44.444;26.006;2023-07-31T13:07:05;3.17;;;2.72;;
46290;SDS011;32023;44.444;26.006;2023-07-31T13:09:34;5.38;;;2.28;;
46290;SDS011;32023;44.444;26.006;2023-07-31T13:12:11;5.25;;;2.80;;
46290;SDS011;32023;44.444;26.006;2023-07-31T13:17:45;5.50;;;2.90;;
46290;SDS011;32023;44.444;26.006;2023-07-31T13:20:12;4.30;;;2.40;;
46290;SDS011;32023;44.444;26.006;2023-07-31T13:22:38;3.25;;;2.95;;
46290;SDS011;32023;44.444;26.006;2023-07-31T13:25:05;7.75;;;3.28;;
46290;SDS011;32023;44.444;26.006;2023-07-31T13:27:32;3.53;;;2.90;;
46290;SDS011;32023;44.444;26.006;2023-07-31T13:29:59;4.85;;;2.40;;
46290;SDS011;32023;44.444;26.006;2023-07-31T13:32:25;5.75;;;3.00;;
46290;SDS011;32023;44.444;26.006;2023-07-31T13:34:52;4.28;;;2.80;;
46290;SDS011;32023;44.444;26.006;2023-07-31T13:37:18;3.33;;;2.70;;
46290;SDS011;32023;44.444;26.006;2023-07-31T13:39:44;4.28;;;3.05;;
46290;SDS011;32023;44.444;26.006;2023-07-31T13:42:11;4.03;;;2.95;;
46290;SDS011;32023;44.444;26.006;2023-07-31T13:44:37;3.47;;;2.80;;
46290;SDS011;32023;44.444;26.006;2023-07-31T13:47:04;3.90;;;2.80;;
46290;SDS011;32023;44.444;26.006;2023-07-31T13:49:31;6.32;;;3.13;;
46290;SDS011;32023;44.444;26.006;2023-07-31T13:51:59;3.47;;;2.90;;
46290;SDS011;32023;44.444;26.006;2023-07-31T13:54:28;4.53;;;3.33;;
46290;SDS011;32023;44.444;26.006;2023-07-31T13:56:54;9.43;;;3.63;;
46290;SDS011;32023;44.444;26.006;2023-07-31T13:59:21;9.43;;;3.80;;
46290;SDS011;32023;44.444;26.006;2023-07-31T14:01:47;3.95;;;3.08;;
46290;SDS011;32023;44.444;26.006;2023-07-31T14:04:15;5.82;;;3.55;;
46290;SDS011;32023;44.444;26.006;2023-07-31T14:06:42;4.97;;;3.40;;
46290;SDS011;32023;44.444;26.006;2023-07-31T14:09:09;5.03;;;3.70;;
46290;SDS011;32023;44.444;26.006;2023-07-31T14:11:35;3.63;;;3.33;;
46290;SDS011;32023;44.444;26.006;2023-07-31T14:14:02;3.85;;;3.47;;
46290;SDS011;32023;44.444;26.006;2023-07-31T14:16:32;3.80;;;3.45;;
46290;SDS011;32023;44.444;26.006;2023-07-31T14:18:59;5.65;;;3.47;;
46290;SDS011;32023;44.444;26.006;2023-07-31T14:21:28;6.68;;;3.70;;
46290;SDS011;32023;44.444;26.006;2023-07-31T14:23:54;6.32;;;4.35;;
46290;SDS011;32023;44.444;26.006;2023-07-31T14:26:21;6.18;;;4.07;;
46290;SDS011;32023;44.444;26.006;2023-07-31T14:28:48;5.82;;;4.43;;
46290;SDS011;32023;44.444;26.006;2023-07-31T14:31:14;5.00;;;4.50;;
46290;SDS011;32023;44.444;26.006;2023-07-31T14:33:40;4.97;;;4.53;;
46290;SDS011;32023;44.444;26.006;2023-07-31T14:36:07;5.55;;;4.43;;
46290;SDS011;32023;44.444;26.006;2023-07-31T14:38:33;5.70;;;4.20;;
46290;SDS011;32023;44.444;26.006;2023-07-31T14:41:00;7.53;;;4.93;;
46290;SDS011;32023;44.444;26.006;2023-07-31T14:43:26;5.32;;;4.82;;
46290;SDS011;32023;44.444;26.006;2023-07-31T14:45:52;5.25;;;4.53;;
46290;SDS011;32023;44.444;26.006;2023-07-31T14:48:21;5.32;;;4.70;;
46290;SDS011;32023;44.444;26.006;2023-07-31T14:50:47;6.18;;;5.22;;
46290;SDS011;32023;44.444;26.006;2023-07-31T14:53:13;8.48;;;5.38;;
46290;SDS011;32023;44.444;26.006;2023-07-31T14:55:40;5.53;;;4.60;;
46290;SDS011;32023;44.444;26.006;2023-07-31T14:58:06;6.18;;;5.00;;
46290;SDS011;32023;44.444;26.006;2023-07-31T15:00:32;7.45;;;4.78;;
46290;SDS011;32023;44.444;26.006;2023-07-31T15:02:59;7.50;;;4.40;;